Pagrindinis puslapis
METAR-TAF:

METAR-TAF

Oro uostai :

Trat, Tailandas

platuma: 12-16-28N, ilguma: 102-19-08E, Aukštis: 32 m

Dabartinis oras

Ataskaita buvo paskelbta 3 valandos ir 17 minutes, ne 09:00 UTC
Vėjas 3 kt iš Pietų
Temperatūra 30°C
Drėgmė 75%
Slėgis 1005 hPa
Matomumas 10 km arba daugiau
Mažai debesys ne aukštis 2000 ft
Su prošvaistėmis ne aukštis 10000 ft

METAR: VTBO 150900Z 18003KT 9999 FEW020 BKN100 30/25 Q1005

Laikas: 19:17 (12:17 UTC)

Prognozė

Ataskaita buvo paskelbta 1 valandą ir 17 minutes, ne 11:00 UTC
Prognozė galioja nuo 15 metu 12 UTC su 16 metu 12 UTC
Vėjas 5 kt iš Pietų/Pietvakarių
Matomumas 10 km arba daugiau
Išsisklaidę debesys ne aukštis 2000 ft
Laikinai
nuo 15 metu 20 UTC su 16 metu 02 UTC
Vėjas 10 kt iš Vakarų
Matomumas: 4000 m
Mažai debesys ne aukštis 1800 ft, Liūtiniai kamuoliniai debesys.
Išsisklaidę debesys ne aukštis 3000 ft
Su prošvaistėmis ne aukštis 10000 ft
perkūnija, lietus

TAF: VTBO 151100Z 1512/1612 20005KT 9999 SCT020 TEMPO 1520/1602 26010KT 4000 TSRA FEW018CB SCT030 BKN100

Orai ataskaitas ir orų prognozės (METAR, TAF).

turimą stotys yra geltonos ir raudonos taškus žemėlapyje.

Perkelti pele per norėdami pamatyti stoties vardą.

Tada spustelėkite, norėdami matyti oro stebėjimo ir prognozės.

Norėdami pakeisti žemėlapį: spustelėkite ant žalios mygtukų su juodo kryžiaus žemyn,; žalią mygtuką su brūkšneliu, jei norite nutolinti; arba žalių rodyklių gretimoms žemėlapius.


METAR-TAF: